createdAt,value
2022-09-22T00:00:43.642Z,9.90
2022-09-22T00:01:33.707Z,10.46
2022-09-22T00:02:13.640Z,10.15
2022-09-22T00:02:53.658Z,11.47
2022-09-22T00:03:27.783Z,10.68
2022-09-22T00:04:23.642Z,13.54
2022-09-22T00:04:57.647Z,18.88
2022-09-22T00:05:44.619Z,19.50
2022-09-22T00:06:24.661Z,14.48
2022-09-22T00:07:11.605Z,12.94
2022-09-22T00:07:45.827Z,13.81
2022-09-22T00:08:26.726Z,12.19
2022-09-22T00:09:07.639Z,10.32
2022-09-22T00:09:47.582Z,11.74
2022-09-22T00:10:28.662Z,14.01
2022-09-22T00:11:20.754Z,15.91
2022-09-22T00:12:02.705Z,17.99
2022-09-22T00:12:43.565Z,17.69
2022-09-22T00:13:23.625Z,16.56
2022-09-22T00:14:28.611Z,16.51
2022-09-22T00:15:09.639Z,15.59
2022-09-22T00:15:52.594Z,14.38
2022-09-22T00:16:39.169Z,12.79
2022-09-22T00:17:19.583Z,12.35
2022-09-22T00:17:59.709Z,11.75
2022-09-22T00:18:40.577Z,10.43
2022-09-22T00:19:36.585Z,10.18
2022-09-22T00:20:30.575Z,10.04
2022-09-22T00:21:26.599Z,9.27
2022-09-22T00:22:20.762Z,8.79
2022-09-22T00:23:14.637Z,8.52
2022-09-22T00:24:08.598Z,8.32
2022-09-22T00:24:55.780Z,8.29
2022-09-22T00:25:29.616Z,8.07
2022-09-22T00:26:18.560Z,8.13
2022-09-22T00:27:00.635Z,8.01
2022-09-22T00:27:40.600Z,8.01
2022-09-22T00:28:22.310Z,7.94
2022-09-22T00:29:02.583Z,7.75
2022-09-22T00:29:43.376Z,7.90
2022-09-22T00:30:23.635Z,7.65
2022-09-22T00:31:03.607Z,7.34
2022-09-22T00:31:45.666Z,7.89
2022-09-22T00:32:25.595Z,7.44
2022-09-22T00:33:05.571Z,6.97
2022-09-22T00:33:46.647Z,7.18
2022-09-22T00:34:29.539Z,7.18
2022-09-22T00:35:09.647Z,6.97
2022-09-22T00:35:49.602Z,6.96
2022-09-22T00:36:32.692Z,6.64
2022-09-22T00:37:12.560Z,6.54
2022-09-22T00:37:52.642Z,6.81
2022-09-22T00:38:32.555Z,7.15
2022-09-22T00:39:13.590Z,7.24
2022-09-22T00:39:53.583Z,7.94
2022-09-22T00:40:33.609Z,7.63
2022-09-22T00:41:17.568Z,7.93
2022-09-22T00:41:58.662Z,7.09
2022-09-22T00:42:39.571Z,6.99
2022-09-22T00:43:22.592Z,6.72
2022-09-22T00:44:42.556Z,6.47
2022-09-22T00:45:22.967Z,6.51
2022-09-22T00:46:21.575Z,6.84
2022-09-22T00:47:31.576Z,6.40
2022-09-22T00:48:11.627Z,6.54
2022-09-22T00:48:58.786Z,7.13
2022-09-22T00:49:44.571Z,6.88
2022-09-22T00:50:27.602Z,6.64
2022-09-22T00:51:09.643Z,6.72
2022-09-22T00:51:51.663Z,6.78
2022-09-22T00:52:48.684Z,7.25
2022-09-22T00:53:23.379Z,8.13
2022-09-22T00:54:04.583Z,7.84
2022-09-22T00:54:38.650Z,7.45
2022-09-22T00:55:19.251Z,8.15
2022-09-22T00:56:11.809Z,8.10
2022-09-22T00:57:04.656Z,7.39
2022-09-22T00:57:39.533Z,7.29
2022-09-22T00:58:30.613Z,7.71
2022-09-22T00:59:08.326Z,7.25
2022-09-22T00:59:57.625Z,7.19
2022-09-22T01:00:31.192Z,7.18
2022-09-22T01:01:18.736Z,7.10
2022-09-22T01:01:52.656Z,7.00
2022-09-22T01:02:32.636Z,7.21
2022-09-22T01:03:07.729Z,7.26
2022-09-22T01:03:41.594Z,7.36
2022-09-22T01:04:23.598Z,7.47
2022-09-22T01:04:58.689Z,7.29
2022-09-22T01:05:33.858Z,7.16
2022-09-22T01:06:16.609Z,7.07
2022-09-22T01:06:57.663Z,6.94
2022-09-22T01:07:38.645Z,7.09
2022-09-22T01:08:20.654Z,7.20
2022-09-22T01:09:01.625Z,7.09
2022-09-22T01:09:41.656Z,6.96
2022-09-22T01:10:21.583Z,6.70
2022-09-22T01:11:01.641Z,7.07
2022-09-22T01:11:44.605Z,7.38
2022-09-22T01:12:24.858Z,7.97
2022-09-22T01:13:42.801Z,7.34
2022-09-22T01:14:46.558Z,7.01
2022-09-22T01:15:45.674Z,6.71
2022-09-22T01:16:45.688Z,6.15
2022-09-22T01:17:39.681Z,5.99
2022-09-22T01:18:31.667Z,5.90
2022-09-22T01:19:44.692Z,5.66
2022-09-22T01:20:45.630Z,5.50
2022-09-22T01:22:12.621Z,5.59
2022-09-22T01:23:05.670Z,5.88
2022-09-22T01:24:12.582Z,5.88
2022-09-22T01:25:20.581Z,6.22
2022-09-22T01:26:32.856Z,6.45
2022-09-22T01:27:31.618Z,6.05
2022-09-22T01:28:29.382Z,5.74
2022-09-22T01:29:53.622Z,6.31
2022-09-22T01:30:39.585Z,6.22
2022-09-22T01:31:40.658Z,6.84
2022-09-22T01:32:47.557Z,7.16
2022-09-22T01:33:49.618Z,6.75
2022-09-22T01:34:41.626Z,6.60
2022-09-22T01:35:48.624Z,6.65
2022-09-22T01:37:16.581Z,6.86
2022-09-22T01:38:18.549Z,6.55
2022-09-22T01:39:41.556Z,6.63
2022-09-22T01:40:53.650Z,6.55
2022-09-22T01:42:07.545Z,6.79
2022-09-22T01:43:07.569Z,6.80
2022-09-22T01:44:14.537Z,6.72
2022-09-22T01:45:13.573Z,6.82
2022-09-22T01:46:07.714Z,7.07
2022-09-22T01:47:11.573Z,6.96
2022-09-22T01:48:12.566Z,7.01
2022-09-22T01:49:07.557Z,6.69
2022-09-22T01:50:05.584Z,6.71
2022-09-22T01:51:07.598Z,6.96
2022-09-22T01:52:13.626Z,6.71
2022-09-22T01:53:09.668Z,6.79
2022-09-22T01:53:55.826Z,6.85
2022-09-22T01:55:02.552Z,7.18
2022-09-22T01:55:45.938Z,7.11
2022-09-22T01:56:27.604Z,6.94
2022-09-22T01:57:15.599Z,6.74
2022-09-22T01:58:17.549Z,6.44
2022-09-22T01:59:04.617Z,6.51
2022-09-22T01:59:46.547Z,6.91
2022-09-22T02:00:27.611Z,7.06
2022-09-22T02:01:15.015Z,7.15
2022-09-22T02:02:07.659Z,7.32
2022-09-22T02:03:05.225Z,7.26
2022-09-22T02:03:49.613Z,7.03
2022-09-22T02:04:36.548Z,7.19
2022-09-22T02:05:13.797Z,6.95
2022-09-22T02:05:55.350Z,6.97
2022-09-22T02:06:38.561Z,6.96
2022-09-22T02:07:23.587Z,7.01
2022-09-22T02:07:59.874Z,6.89
2022-09-22T02:08:55.543Z,7.19
2022-09-22T02:09:31.191Z,7.47
2022-09-22T02:10:25.572Z,7.05
2022-09-22T02:11:04.302Z,7.13
2022-09-22T02:11:52.526Z,7.13
2022-09-22T02:12:32.555Z,7.15
2022-09-22T02:13:12.619Z,7.20
2022-09-22T02:13:53.545Z,7.19
2022-09-22T02:14:33.746Z,7.15
2022-09-22T02:15:37.625Z,7.09
2022-09-22T02:16:19.894Z,7.16
2022-09-22T02:17:00.548Z,7.05
2022-09-22T02:17:48.697Z,7.31
2022-09-22T02:18:26.046Z,7.10
2022-09-22T02:19:19.516Z,6.89
2022-09-22T02:19:53.101Z,6.94
2022-09-22T02:20:40.559Z,6.75
2022-09-22T02:21:15.139Z,6.81
2022-09-22T02:22:03.554Z,6.50
2022-09-22T02:22:37.111Z,6.41
2022-09-22T02:23:17.543Z,6.68
2022-09-22T02:23:52.634Z,6.76
2022-09-22T02:24:45.505Z,6.64
2022-09-22T02:25:26.526Z,6.66
2022-09-22T02:26:04.256Z,6.46
2022-09-22T02:26:38.123Z,6.39
2022-09-22T02:27:27.546Z,6.21
2022-09-22T02:28:02.615Z,6.22
2022-09-22T02:28:45.563Z,6.22
2022-09-22T02:29:26.611Z,6.35
2022-09-22T02:30:12.493Z,6.22
2022-09-22T02:31:17.934Z,6.11
2022-09-22T02:32:02.630Z,6.96
2022-09-22T02:32:36.600Z,6.96
2022-09-22T02:33:25.523Z,6.57
2022-09-22T02:34:06.580Z,7.00
2022-09-22T02:35:00.501Z,6.78
2022-09-22T02:35:56.508Z,7.03
2022-09-22T02:37:09.603Z,6.84
2022-09-22T02:38:13.502Z,7.06
2022-09-22T02:39:26.550Z,7.22
2022-09-22T02:40:32.579Z,7.38
2022-09-22T02:41:32.531Z,7.25
2022-09-22T02:42:34.510Z,7.07
2022-09-22T02:43:38.530Z,7.35
2022-09-22T02:44:38.514Z,7.24
2022-09-22T02:45:56.542Z,7.64
2022-09-22T02:46:56.496Z,7.40
2022-09-22T02:47:57.533Z,7.06
2022-09-22T02:48:55.480Z,6.68
2022-09-22T02:49:49.523Z,7.04
2022-09-22T02:50:44.470Z,7.36
2022-09-22T02:51:38.497Z,7.75
2022-09-22T02:52:33.517Z,7.68
2022-09-22T02:53:29.493Z,7.44
2022-09-22T02:54:23.502Z,7.49
2022-09-22T02:55:12.541Z,7.60
2022-09-22T02:55:47.536Z,7.63
2022-09-22T02:56:34.480Z,7.65
2022-09-22T02:57:08.548Z,7.89
2022-09-22T02:57:55.499Z,8.10
2022-09-22T02:58:29.572Z,8.05
2022-09-22T02:59:16.512Z,7.90
2022-09-22T02:59:50.614Z,7.76
2022-09-22T03:00:38.766Z,7.72
2022-09-22T03:01:12.615Z,7.80
2022-09-22T03:01:59.529Z,7.50
2022-09-22T03:02:33.579Z,7.49
2022-09-22T03:03:20.465Z,7.80
2022-09-22T03:03:54.556Z,8.07
2022-09-22T03:04:41.501Z,8.02
2022-09-22T03:05:15.669Z,7.88
2022-09-22T03:06:02.533Z,7.85
2022-09-22T03:06:38.450Z,8.04
2022-09-22T03:07:25.536Z,7.97
2022-09-22T03:07:59.772Z,8.20
2022-09-22T03:08:46.459Z,8.36
2022-09-22T03:09:20.536Z,8.90
2022-09-22T03:10:07.518Z,9.40
2022-09-22T03:10:41.506Z,8.98
2022-09-22T03:11:21.479Z,8.93
2022-09-22T03:12:01.561Z,9.36
2022-09-22T03:12:56.718Z,8.64
2022-09-22T03:13:41.588Z,7.80
2022-09-22T03:14:21.470Z,7.60
2022-09-22T03:15:01.602Z,6.95
2022-09-22T03:15:41.536Z,7.13
2022-09-22T03:16:28.525Z,7.30
2022-09-22T03:17:22.482Z,7.03
2022-09-22T03:18:17.517Z,7.25
2022-09-22T03:19:11.478Z,6.95
2022-09-22T03:20:05.483Z,6.94
2022-09-22T03:20:59.609Z,7.15
2022-09-22T03:21:46.703Z,7.28
2022-09-22T03:22:20.563Z,7.19
2022-09-22T03:23:07.636Z,6.81
2022-09-22T03:23:41.622Z,6.91
2022-09-22T03:24:28.503Z,6.93
2022-09-22T03:25:02.599Z,6.81
2022-09-22T03:25:49.470Z,6.99
2022-09-22T03:26:23.550Z,7.06
2022-09-22T03:27:10.483Z,7.10
2022-09-22T03:27:45.541Z,7.07
2022-09-22T03:28:32.445Z,6.81
2022-09-22T03:29:06.540Z,6.18
2022-09-22T03:29:53.447Z,6.18
2022-09-22T03:30:27.523Z,6.76
2022-09-22T03:31:14.531Z,7.32
2022-09-22T03:31:55.585Z,7.00
2022-09-22T03:32:35.503Z,7.94
2022-09-22T03:33:15.600Z,7.34
2022-09-22T03:33:55.450Z,6.81
2022-09-22T03:34:35.531Z,7.11
2022-09-22T03:35:16.562Z,7.31
2022-09-22T03:35:56.518Z,8.26
2022-09-22T03:36:36.447Z,9.27
2022-09-22T03:37:16.502Z,7.59
2022-09-22T03:37:56.494Z,7.07
2022-09-22T03:38:36.523Z,7.64
2022-09-22T03:39:16.466Z,10.99
2022-09-22T03:39:56.546Z,11.81
2022-09-22T03:40:36.462Z,9.15
2022-09-22T03:41:17.519Z,8.74
2022-09-22T03:41:57.445Z,7.43
2022-09-22T03:42:37.510Z,7.09
2022-09-22T03:43:17.483Z,6.80
2022-09-22T03:43:58.705Z,6.64
2022-09-22T03:44:39.429Z,6.25
2022-09-22T03:45:19.522Z,6.22
2022-09-22T03:46:06.511Z,6.61
2022-09-22T03:46:46.781Z,6.68
2022-09-22T03:47:27.467Z,6.41
2022-09-22T03:48:07.502Z,5.93
2022-09-22T03:48:47.511Z,5.84
2022-09-22T03:49:27.513Z,6.06
2022-09-22T03:50:07.456Z,6.03
2022-09-22T03:50:47.515Z,5.95
2022-09-22T03:51:27.443Z,5.53
2022-09-22T03:52:08.547Z,5.90
2022-09-22T03:52:50.429Z,5.85
2022-09-22T03:53:31.535Z,5.65
2022-09-22T03:54:11.461Z,5.95
2022-09-22T03:54:52.262Z,6.05
2022-09-22T03:55:32.433Z,5.65
2022-09-22T03:56:15.514Z,5.54
2022-09-22T03:56:55.398Z,5.80
2022-09-22T03:57:36.540Z,5.90
2022-09-22T03:58:16.428Z,6.47
2022-09-22T03:58:56.550Z,6.96
2022-09-22T03:59:36.498Z,7.24
2022-09-22T04:00:17.518Z,7.38
2022-09-22T04:00:57.619Z,7.38
2022-09-22T04:01:38.120Z,7.10
2022-09-22T04:02:18.500Z,6.86
2022-09-22T04:02:58.792Z,6.85
2022-09-22T04:03:40.422Z,7.07
2022-09-22T04:04:20.514Z,7.30
2022-09-22T04:05:00.444Z,7.20
2022-09-22T04:05:40.485Z,6.74
2022-09-22T04:06:20.417Z,6.88
2022-09-22T04:07:06.889Z,6.84
2022-09-22T04:07:47.410Z,6.96
2022-09-22T04:08:27.638Z,6.90
2022-09-22T04:09:08.384Z,6.53
2022-09-22T04:09:48.484Z,6.49
2022-09-22T04:10:29.493Z,6.74
2022-09-22T04:11:10.538Z,6.75
2022-09-22T04:11:51.425Z,6.63
2022-09-22T04:12:31.550Z,6.75
2022-09-22T04:13:11.405Z,6.06
2022-09-22T04:13:51.563Z,6.06
2022-09-22T04:14:31.421Z,6.31
2022-09-22T04:15:12.547Z,6.49
2022-09-22T04:15:53.460Z,6.71
2022-09-22T04:16:34.541Z,6.53
2022-09-22T04:17:14.386Z,6.06
2022-09-22T04:17:58.374Z,5.69
2022-09-22T04:18:38.401Z,5.60
2022-09-22T04:19:19.723Z,6.09
2022-09-22T04:20:01.396Z,6.19
2022-09-22T04:20:43.688Z,6.04
2022-09-22T04:21:24.480Z,5.70
2022-09-22T04:22:04.495Z,5.79
2022-09-22T04:22:45.390Z,5.70
2022-09-22T04:23:25.509Z,5.78
2022-09-22T04:24:05.487Z,5.89
2022-09-22T04:24:45.622Z,5.90
2022-09-22T04:25:25.611Z,6.01
2022-09-22T04:26:05.484Z,5.68
2022-09-22T04:27:02.211Z,5.28
2022-09-22T04:27:46.433Z,5.44
2022-09-22T04:28:26.360Z,5.59
2022-09-22T04:29:06.505Z,5.44
2022-09-22T04:29:46.402Z,5.31
2022-09-22T04:30:26.568Z,5.31
2022-09-22T04:31:06.456Z,5.55
2022-09-22T04:31:53.423Z,5.56
2022-09-22T04:32:27.991Z,5.56
2022-09-22T04:33:15.368Z,5.51
2022-09-22T04:34:09.386Z,5.74
2022-09-22T04:35:03.376Z,5.78
2022-09-22T04:35:57.376Z,5.69
2022-09-22T04:36:51.394Z,5.60
2022-09-22T04:37:31.365Z,5.84
2022-09-22T04:38:11.425Z,5.88
2022-09-22T04:38:51.386Z,5.53
2022-09-22T04:39:31.446Z,5.90
2022-09-22T04:40:12.575Z,5.81
2022-09-22T04:40:52.492Z,5.76
2022-09-22T04:41:32.392Z,5.51
2022-09-22T04:42:12.485Z,5.54
2022-09-22T04:42:46.897Z,5.74
2022-09-22T04:43:34.366Z,5.75
2022-09-22T04:44:08.543Z,6.30
2022-09-22T04:44:55.377Z,5.97
2022-09-22T04:45:29.492Z,5.96
2022-09-22T04:46:16.488Z,5.99
2022-09-22T04:46:50.490Z,5.88
2022-09-22T04:47:37.486Z,5.66
2022-09-22T04:48:11.476Z,6.25
2022-09-22T04:48:58.340Z,6.09
2022-09-22T04:49:32.492Z,5.50
2022-09-22T04:50:20.431Z,5.69
2022-09-22T04:50:54.496Z,5.91
2022-09-22T04:51:41.376Z,5.93
2022-09-22T04:52:15.538Z,5.82
2022-09-22T04:53:03.406Z,5.72
2022-09-22T04:53:37.634Z,5.43
2022-09-22T04:54:24.361Z,5.72
2022-09-22T04:54:58.424Z,5.84
2022-09-22T04:55:45.396Z,5.94
2022-09-22T04:56:19.629Z,6.03
2022-09-22T04:57:06.367Z,5.80
2022-09-22T04:57:40.462Z,5.80
2022-09-22T04:58:27.401Z,5.74
2022-09-22T04:59:02.161Z,5.49
2022-09-22T04:59:49.337Z,5.25
2022-09-22T05:00:24.505Z,5.26
2022-09-22T05:01:12.398Z,5.14
2022-09-22T05:01:46.505Z,5.20
2022-09-22T05:02:33.393Z,5.15
2022-09-22T05:03:07.494Z,5.15
2022-09-22T05:03:47.402Z,5.36
2022-09-22T05:04:28.664Z,5.09
2022-09-22T05:05:09.384Z,4.69
2022-09-22T05:05:49.531Z,4.64
2022-09-22T05:06:29.361Z,4.78
2022-09-22T05:07:09.406Z,4.97
2022-09-22T05:07:54.448Z,5.10
2022-09-22T05:08:34.394Z,5.31
2022-09-22T05:09:15.369Z,5.89
2022-09-22T05:09:55.466Z,5.90
2022-09-22T05:10:38.381Z,5.68
2022-09-22T05:11:23.697Z,5.45
2022-09-22T05:12:06.336Z,5.47
2022-09-22T05:12:49.471Z,5.40
2022-09-22T05:13:29.370Z,5.66
2022-09-22T05:14:09.480Z,5.68
2022-09-22T05:14:49.375Z,5.88
2022-09-22T05:15:32.693Z,5.54
2022-09-22T05:16:14.441Z,5.46
2022-09-22T05:16:54.463Z,5.21
2022-09-22T05:17:35.410Z,5.03
2022-09-22T05:18:16.414Z,5.01
2022-09-22T05:18:59.309Z,4.94
2022-09-22T05:19:39.458Z,4.89
2022-09-22T05:20:20.406Z,4.63
2022-09-22T05:21:00.394Z,4.79
2022-09-22T05:21:41.378Z,4.95
2022-09-22T05:22:22.846Z,4.94
2022-09-22T05:23:03.333Z,5.09
2022-09-22T05:23:43.373Z,4.65
2022-09-22T05:24:23.321Z,4.29
2022-09-22T05:25:03.394Z,4.56
2022-09-22T05:25:43.368Z,4.78
2022-09-22T05:26:23.389Z,4.56
2022-09-22T05:27:04.320Z,4.65
2022-09-22T05:27:54.464Z,4.54
2022-09-22T05:28:34.329Z,4.29
2022-09-22T05:29:14.458Z,4.30
2022-09-22T05:29:54.355Z,4.47
2022-09-22T05:30:34.423Z,4.26
2022-09-22T05:31:15.433Z,4.35
2022-09-22T05:31:55.435Z,4.35
2022-09-22T05:32:35.336Z,4.35
2022-09-22T05:33:15.547Z,4.38
2022-09-22T05:33:55.307Z,4.34
2022-09-22T05:34:35.366Z,4.31
2022-09-22T05:35:16.304Z,4.43
2022-09-22T05:35:56.466Z,4.53
2022-09-22T05:36:36.499Z,4.38
2022-09-22T05:37:16.422Z,4.38
2022-09-22T05:37:57.328Z,4.43
2022-09-22T05:38:37.431Z,4.55
2022-09-22T05:39:17.356Z,4.44
2022-09-22T05:39:57.420Z,4.39
2022-09-22T05:40:37.418Z,4.36
2022-09-22T05:41:17.543Z,4.44
2022-09-22T05:41:57.366Z,4.43
2022-09-22T05:42:37.451Z,4.50
2022-09-22T05:43:17.342Z,4.53
2022-09-22T05:43:57.387Z,4.05
2022-09-22T05:44:37.307Z,4.54
2022-09-22T05:45:18.263Z,5.01
2022-09-22T05:45:58.371Z,4.79
2022-09-22T05:46:38.481Z,4.99
2022-09-22T05:47:18.330Z,4.85
2022-09-22T05:47:58.395Z,4.75
2022-09-22T05:48:41.310Z,4.51
2022-09-22T05:49:21.400Z,4.79
2022-09-22T05:50:02.311Z,5.10
2022-09-22T05:50:42.436Z,4.89
2022-09-22T05:51:22.364Z,4.64
2022-09-22T05:52:02.580Z,4.51
2022-09-22T05:52:42.372Z,4.47
2022-09-22T05:53:23.514Z,4.64
2022-09-22T05:54:03.315Z,4.47
2022-09-22T05:54:45.658Z,4.57
2022-09-22T05:55:25.374Z,4.34
2022-09-22T05:56:06.423Z,4.46
2022-09-22T05:56:46.308Z,4.55
2022-09-22T05:57:27.555Z,4.29
2022-09-22T05:58:08.350Z,4.00
2022-09-22T05:58:48.433Z,4.04
2022-09-22T05:59:28.346Z,4.11
2022-09-22T06:00:08.393Z,4.15
2022-09-22T06:00:48.388Z,3.97
2022-09-22T06:01:30.858Z,3.88
2022-09-22T06:02:25.626Z,3.79
2022-09-22T06:03:06.439Z,3.81
2022-09-22T06:03:47.395Z,3.99
2022-09-22T06:04:27.390Z,3.94
2022-09-22T06:05:07.274Z,3.80
2022-09-22T06:05:47.436Z,3.76
2022-09-22T06:06:28.278Z,3.64
2022-09-22T06:07:08.474Z,3.83
2022-09-22T06:07:49.326Z,4.04
2022-09-22T06:08:32.435Z,3.91
2022-09-22T06:09:12.306Z,3.79
2022-09-22T06:09:52.394Z,3.90
2022-09-22T06:10:33.304Z,4.04
2022-09-22T06:11:13.335Z,4.20
2022-09-22T06:11:53.285Z,4.16
2022-09-22T06:12:33.458Z,3.74
2022-09-22T06:14:17.645Z,3.89
2022-09-22T06:14:51.444Z,3.88
2022-09-22T06:15:40.276Z,3.83
2022-09-22T06:16:14.556Z,3.83
2022-09-22T06:17:21.016Z,3.75
2022-09-22T06:18:02.420Z,3.88
2022-09-22T06:18:36.442Z,3.85
2022-09-22T06:19:09.790Z,3.66
2022-09-22T06:19:54.249Z,3.72
2022-09-22T06:20:28.429Z,3.78
2022-09-22T06:21:02.802Z,3.83
2022-09-22T06:21:43.285Z,4.05
2022-09-22T06:22:17.338Z,3.91
2022-09-22T06:22:51.007Z,3.83
2022-09-22T06:23:34.307Z,3.84
2022-09-22T06:24:08.364Z,3.95
2022-09-22T06:24:41.954Z,4.19
2022-09-22T06:25:22.294Z,4.68
2022-09-22T06:25:56.370Z,4.56
2022-09-22T06:26:30.969Z,4.36
2022-09-22T06:27:11.277Z,4.61
2022-09-22T06:27:45.764Z,4.76
2022-09-22T06:28:19.824Z,4.53
2022-09-22T06:29:00.296Z,4.38
2022-09-22T06:29:34.338Z,4.46
2022-09-22T06:30:11.310Z,4.07
2022-09-22T06:30:51.323Z,3.92
2022-09-22T06:31:25.422Z,4.04
2022-09-22T06:31:59.854Z,3.86
2022-09-22T06:32:46.246Z,3.96
2022-09-22T06:33:23.869Z,4.18
2022-09-22T06:33:57.796Z,3.92
2022-09-22T06:34:40.390Z,3.99
2022-09-22T06:35:14.522Z,4.31
2022-09-22T06:35:47.765Z,4.10
2022-09-22T06:37:32.802Z,4.14
2022-09-22T06:38:08.063Z,3.75
2022-09-22T06:38:48.233Z,3.75
2022-09-22T06:39:22.549Z,3.81
2022-09-22T06:40:03.382Z,3.76
2022-09-22T06:40:43.445Z,3.60
2022-09-22T06:41:23.282Z,3.65
2022-09-22T06:42:03.376Z,3.85
2022-09-22T06:42:44.311Z,3.60
2022-09-22T06:43:26.476Z,3.79
2022-09-22T06:44:06.248Z,3.90
2022-09-22T06:44:46.545Z,4.19
2022-09-22T06:45:27.379Z,4.14
2022-09-22T06:46:10.181Z,4.19
2022-09-22T06:46:50.249Z,4.26
2022-09-22T06:47:31.698Z,4.30
2022-09-22T06:48:12.261Z,4.09
2022-09-22T06:48:59.334Z,4.34
2022-09-22T06:49:39.285Z,4.39
2022-09-22T06:50:19.345Z,4.15
2022-09-22T06:51:00.273Z,4.13
2022-09-22T06:51:43.320Z,3.90
2022-09-22T06:52:23.229Z,3.91
2022-09-22T06:53:11.811Z,4.19
2022-09-22T06:53:54.240Z,4.14
2022-09-22T06:54:34.338Z,3.79
2022-09-22T06:55:26.378Z,3.33
2022-09-22T06:56:16.355Z,3.22
2022-09-22T06:56:49.757Z,3.50
2022-09-22T06:57:39.228Z,3.28
2022-09-22T06:58:14.790Z,3.15
2022-09-22T06:59:18.255Z,3.19
2022-09-22T06:59:51.887Z,3.47
2022-09-22T07:00:40.333Z,3.79
2022-09-22T07:01:14.473Z,3.51
2022-09-22T07:01:54.386Z,3.59
2022-09-22T07:02:29.313Z,3.60
2022-09-22T07:03:22.994Z,3.47
2022-09-22T07:04:04.268Z,4.07
2022-09-22T07:04:42.314Z,4.41
2022-09-22T07:05:18.695Z,4.29
2022-09-22T07:06:05.276Z,3.95
2022-09-22T07:06:40.741Z,3.76
2022-09-22T07:07:21.383Z,3.88
2022-09-22T07:08:01.354Z,3.99
2022-09-22T07:08:42.290Z,3.84
2022-09-22T07:09:23.527Z,3.95
2022-09-22T07:10:05.667Z,3.95
2022-09-22T07:10:45.586Z,3.80
2022-09-22T07:11:30.242Z,4.24
2022-09-22T07:12:10.398Z,4.05
2022-09-22T07:12:51.276Z,4.06
2022-09-22T07:13:33.582Z,3.90
2022-09-22T07:14:15.242Z,3.67
2022-09-22T07:14:58.055Z,3.83
2022-09-22T07:15:42.294Z,3.90
2022-09-22T07:16:25.461Z,4.05
2022-09-22T07:17:06.233Z,4.36
2022-09-22T07:18:00.838Z,4.15
2022-09-22T07:18:42.361Z,4.11
2022-09-22T07:19:22.685Z,3.79
2022-09-22T07:20:06.280Z,3.89
2022-09-22T07:20:46.334Z,3.56
2022-09-22T07:21:31.326Z,3.33
2022-09-22T07:22:12.910Z,3.28
2022-09-22T07:22:53.283Z,3.34
2022-09-22T07:23:34.782Z,3.01
2022-09-22T07:24:15.295Z,2.85
2022-09-22T07:25:51.640Z,3.08
2022-09-22T07:26:35.284Z,2.96
2022-09-22T07:27:26.227Z,2.81
2022-09-22T07:28:11.240Z,2.90
2022-09-22T07:29:00.397Z,2.89
2022-09-22T07:29:40.369Z,2.83
2022-09-22T07:30:22.537Z,2.78
2022-09-22T07:31:12.356Z,2.72
2022-09-22T07:31:53.421Z,2.79
2022-09-22T07:32:38.462Z,2.80
2022-09-22T07:33:19.829Z,2.71
2022-09-22T07:34:05.452Z,2.64
2022-09-22T07:34:52.459Z,2.88
2022-09-22T07:35:28.833Z,3.11
2022-09-22T07:36:27.290Z,2.85
2022-09-22T07:37:08.600Z,2.66
2022-09-22T07:37:57.191Z,2.69
2022-09-22T07:38:36.361Z,2.42
2022-09-22T07:39:32.167Z,2.03
2022-09-22T07:40:16.440Z,1.99
2022-09-22T07:41:24.873Z,2.59
2022-09-22T07:42:12.251Z,3.75
2022-09-22T07:43:21.205Z,4.30
2022-09-22T07:44:33.195Z,3.55
2022-09-22T07:46:33.532Z,3.56
2022-09-22T07:48:00.279Z,3.66
2022-09-22T07:48:55.263Z,3.53
2022-09-22T07:49:49.272Z,3.28
2022-09-22T07:52:02.330Z,3.81
2022-09-22T07:52:46.343Z,3.90
2022-09-22T07:53:33.211Z,3.75
2022-09-22T07:54:07.463Z,3.84
2022-09-22T07:55:09.877Z,3.39
2022-09-22T07:55:52.204Z,2.92
2022-09-22T07:56:31.039Z,3.00
2022-09-22T07:57:13.366Z,2.83
2022-09-22T07:58:00.310Z,2.61
2022-09-22T07:58:40.189Z,2.63
2022-09-22T07:59:22.274Z,2.74
2022-09-22T08:00:04.211Z,2.92
2022-09-22T08:00:44.389Z,2.92
2022-09-22T08:01:27.242Z,2.76
2022-09-22T08:02:08.336Z,2.83
2022-09-22T08:02:48.253Z,2.49
2022-09-22T08:03:28.319Z,2.63
2022-09-22T08:04:08.177Z,2.59
2022-09-22T08:04:48.264Z,2.45
2022-09-22T08:05:29.238Z,2.55
2022-09-22T08:06:12.023Z,2.55
2022-09-22T08:06:54.156Z,2.40
2022-09-22T08:07:37.340Z,2.49
2022-09-22T08:08:19.195Z,2.39
2022-09-22T08:09:03.989Z,2.35
2022-09-22T08:09:44.178Z,2.14
2022-09-22T08:10:26.395Z,2.20
2022-09-22T08:11:19.336Z,2.54
2022-09-22T08:12:00.273Z,2.53
2022-09-22T08:12:40.189Z,2.53
2022-09-22T08:13:27.189Z,2.45
2022-09-22T08:14:25.198Z,2.29
2022-09-22T08:15:24.605Z,2.20
2022-09-22T08:16:21.297Z,2.34
2022-09-22T08:17:19.219Z,2.14
2022-09-22T08:18:14.184Z,2.06
2022-09-22T08:19:03.320Z,1.98
2022-09-22T08:19:43.293Z,1.98
2022-09-22T08:20:24.169Z,1.92
2022-09-22T08:21:04.464Z,1.99
2022-09-22T08:21:54.440Z,2.08
2022-09-22T08:22:35.238Z,1.98
2022-09-22T08:23:17.212Z,1.99
2022-09-22T08:23:58.162Z,1.92
2022-09-22T08:24:38.189Z,2.11
2022-09-22T08:25:18.269Z,1.90
2022-09-22T08:25:58.201Z,1.90
2022-09-22T08:26:38.294Z,1.79
2022-09-22T08:27:19.170Z,1.91
2022-09-22T08:28:00.232Z,2.00
2022-09-22T08:28:41.142Z,1.95
2022-09-22T08:29:21.367Z,2.19
2022-09-22T08:30:01.177Z,2.11
2022-09-22T08:30:41.249Z,2.06
2022-09-22T08:31:26.246Z,2.05
2022-09-22T08:32:06.370Z,2.05
2022-09-22T08:32:48.174Z,2.01
2022-09-22T08:33:28.224Z,1.89
2022-09-22T08:34:08.160Z,1.83
2022-09-22T08:34:49.284Z,1.81
2022-09-22T08:35:29.206Z,1.96
2022-09-22T08:36:09.419Z,1.85
2022-09-22T08:36:53.154Z,1.70
2022-09-22T08:37:34.325Z,1.55
2022-09-22T08:38:14.165Z,1.75
2022-09-22T08:38:56.160Z,1.98
2022-09-22T08:39:37.146Z,1.73
2022-09-22T08:40:25.282Z,1.65
2022-09-22T08:41:11.193Z,1.61
2022-09-22T08:42:28.646Z,1.91
2022-09-22T08:43:13.847Z,1.64
2022-09-22T08:43:57.561Z,1.41
2022-09-22T08:44:59.170Z,1.33
2022-09-22T08:45:44.343Z,1.31
2022-09-22T08:46:28.203Z,1.34
2022-09-22T08:47:08.219Z,1.26
2022-09-22T08:48:18.195Z,1.19
2022-09-22T08:49:20.795Z,1.02
2022-09-22T08:50:20.150Z,0.86
2022-09-22T08:51:23.797Z,0.88
2022-09-22T08:52:10.174Z,1.05
2022-09-22T08:52:57.214Z,0.95
2022-09-22T08:53:41.113Z,1.02
2022-09-22T08:54:21.342Z,1.00
2022-09-22T08:55:07.142Z,1.00
2022-09-22T08:55:48.442Z,0.98
2022-09-22T08:56:37.129Z,1.04
2022-09-22T08:57:29.265Z,0.95
2022-09-22T08:58:52.170Z,1.05
2022-09-22T09:00:07.151Z,1.15
2022-09-22T09:01:10.127Z,0.95
2022-09-22T09:02:36.228Z,1.06
2022-09-22T09:04:02.170Z,1.16
2022-09-22T09:04:58.131Z,1.08
2022-09-22T09:06:22.166Z,0.96
2022-09-22T09:07:25.177Z,0.84
2022-09-22T09:08:27.196Z,1.00
2022-09-22T09:09:14.193Z,0.91
2022-09-22T09:10:22.151Z,0.74
2022-09-22T09:11:03.238Z,0.70
2022-09-22T09:12:06.121Z,0.74
2022-09-22T09:13:05.181Z,0.77
2022-09-22T09:14:02.142Z,0.93
2022-09-22T09:15:30.211Z,0.66
2022-09-22T09:16:47.109Z,0.71
2022-09-22T09:17:37.250Z,0.99
2022-09-22T09:18:24.102Z,0.90
2022-09-22T09:19:31.240Z,0.73
2022-09-22T09:20:52.119Z,0.70
2022-09-22T09:21:47.103Z,0.54
2022-09-22T09:22:48.453Z,0.70
2022-09-22T09:26:03.184Z,0.74
2022-09-22T09:26:43.109Z,0.84
2022-09-22T09:27:28.836Z,0.81
2022-09-22T09:28:34.101Z,0.81
2022-09-22T09:29:20.221Z,0.80
2022-09-22T09:30:11.156Z,0.90
2022-09-22T09:31:08.157Z,1.16
2022-09-22T09:31:53.126Z,1.13
2022-09-22T09:32:40.191Z,0.70
2022-09-22T09:33:42.143Z,0.79
2022-09-22T09:34:25.405Z,1.76
2022-09-22T09:35:06.159Z,3.78
2022-09-22T09:35:51.231Z,4.75
2022-09-22T09:36:29.586Z,2.75
2022-09-22T09:37:20.216Z,1.69
2022-09-22T09:37:55.396Z,1.45
2022-09-22T09:38:47.093Z,1.25
2022-09-22T09:39:33.285Z,0.98
2022-09-22T09:40:25.197Z,0.79
2022-09-22T09:41:13.111Z,0.68
2022-09-22T09:42:07.132Z,0.80
2022-09-22T09:43:11.099Z,0.77
2022-09-22T09:44:06.106Z,0.76
2022-09-22T09:45:01.114Z,0.76
2022-09-22T09:46:04.178Z,0.68
2022-09-22T09:46:47.188Z,0.73
2022-09-22T09:47:47.612Z,0.77
2022-09-22T09:48:41.203Z,0.80
2022-09-22T09:49:27.169Z,0.79
2022-09-22T09:50:08.118Z,0.77
2022-09-22T09:50:49.378Z,0.80
2022-09-22T09:51:30.083Z,0.80
2022-09-22T09:52:17.135Z,0.76
2022-09-22T09:52:53.171Z,0.74
2022-09-22T09:53:52.595Z,0.82
2022-09-22T09:54:29.760Z,0.73
2022-09-22T09:55:28.114Z,0.65
2022-09-22T09:56:02.158Z,0.73
2022-09-22T09:57:16.125Z,0.70
2022-09-22T09:58:41.154Z,0.71
2022-09-22T09:59:59.186Z,0.84
2022-09-22T10:01:14.197Z,0.79
2022-09-22T10:02:08.106Z,0.64
2022-09-22T10:02:57.124Z,0.71
2022-09-22T10:03:40.154Z,0.88
2022-09-22T10:04:41.194Z,1.02
2022-09-22T10:05:27.180Z,1.01
2022-09-22T10:06:16.133Z,0.95
2022-09-22T10:07:01.412Z,0.77
2022-09-22T10:07:53.060Z,0.76
2022-09-22T10:08:34.109Z,0.68
2022-09-22T10:09:08.372Z,0.66
2022-09-22T10:09:56.101Z,0.76
2022-09-22T10:10:35.831Z,0.77
2022-09-22T10:11:23.070Z,0.71